sensor_id;sensor_type;location;lat;lon;timestamp;P1;durP1;ratioP1;P2;durP2;ratioP2
5549;SDS011;2798;42.716;23.256;2023-07-29T00:00:40;11.27;;;3.13;;
5549;SDS011;2798;42.716;23.256;2023-07-29T00:03:07;4.10;;;3.50;;
5549;SDS011;2798;42.716;23.256;2023-07-29T00:05:33;5.00;;;3.67;;
5549;SDS011;2798;42.716;23.256;2023-07-29T00:07:58;4.90;;;3.40;;
5549;SDS011;2798;42.716;23.256;2023-07-29T00:10:24;3.50;;;2.83;;
5549;SDS011;2798;42.716;23.256;2023-07-29T00:12:49;5.00;;;3.13;;
5549;SDS011;2798;42.716;23.256;2023-07-29T00:15:14;3.93;;;3.60;;
5549;SDS011;2798;42.716;23.256;2023-07-29T00:17:40;3.43;;;3.10;;
5549;SDS011;2798;42.716;23.256;2023-07-29T00:20:06;3.90;;;3.07;;
5549;SDS011;2798;42.716;23.256;2023-07-29T00:22:32;6.20;;;3.53;;
5549;SDS011;2798;42.716;23.256;2023-07-29T00:24:57;4.37;;;3.40;;
5549;SDS011;2798;42.716;23.256;2023-07-29T00:27:24;3.10;;;2.80;;
5549;SDS011;2798;42.716;23.256;2023-07-29T00:29:50;3.17;;;2.97;;
5549;SDS011;2798;42.716;23.256;2023-07-29T00:32:15;3.70;;;3.23;;
5549;SDS011;2798;42.716;23.256;2023-07-29T00:34:40;3.03;;;2.73;;
5549;SDS011;2798;42.716;23.256;2023-07-29T00:37:06;7.87;;;3.00;;
5549;SDS011;2798;42.716;23.256;2023-07-29T00:39:32;4.60;;;3.10;;
5549;SDS011;2798;42.716;23.256;2023-07-29T00:41:57;5.83;;;3.20;;
5549;SDS011;2798;42.716;23.256;2023-07-29T00:44:23;3.43;;;3.00;;
5549;SDS011;2798;42.716;23.256;2023-07-29T00:46:49;4.17;;;3.47;;
5549;SDS011;2798;42.716;23.256;2023-07-29T00:49:17;4.10;;;3.30;;
5549;SDS011;2798;42.716;23.256;2023-07-29T00:51:42;3.60;;;3.20;;
5549;SDS011;2798;42.716;23.256;2023-07-29T00:54:08;4.13;;;3.57;;
5549;SDS011;2798;42.716;23.256;2023-07-29T00:56:34;4.63;;;3.13;;
5549;SDS011;2798;42.716;23.256;2023-07-29T00:59:00;4.63;;;3.10;;
5549;SDS011;2798;42.716;23.256;2023-07-29T01:01:30;3.27;;;2.90;;
5549;SDS011;2798;42.716;23.256;2023-07-29T01:03:56;6.60;;;3.23;;
5549;SDS011;2798;42.716;23.256;2023-07-29T01:09:03;6.40;;;3.20;;
5549;SDS011;2798;42.716;23.256;2023-07-29T01:16:51;4.83;;;3.23;;
5549;SDS011;2798;42.716;23.256;2023-07-29T01:22:10;4.13;;;3.60;;
5549;SDS011;2798;42.716;23.256;2023-07-29T01:24:38;7.93;;;3.13;;
5549;SDS011;2798;42.716;23.256;2023-07-29T01:27:21;4.40;;;3.63;;
5549;SDS011;2798;42.716;23.256;2023-07-29T01:29:47;4.07;;;3.17;;
5549;SDS011;2798;42.716;23.256;2023-07-29T01:32:59;4.13;;;3.27;;
5549;SDS011;2798;42.716;23.256;2023-07-29T01:35:24;7.77;;;3.80;;
5549;SDS011;2798;42.716;23.256;2023-07-29T01:38:28;4.83;;;3.43;;
5549;SDS011;2798;42.716;23.256;2023-07-29T01:40:53;7.67;;;3.90;;
5549;SDS011;2798;42.716;23.256;2023-07-29T01:43:21;3.50;;;3.17;;
5549;SDS011;2798;42.716;23.256;2023-07-29T01:45:48;4.00;;;3.60;;
5549;SDS011;2798;42.716;23.256;2023-07-29T01:48:14;3.30;;;3.00;;
5549;SDS011;2798;42.716;23.256;2023-07-29T01:50:40;3.63;;;3.33;;
5549;SDS011;2798;42.716;23.256;2023-07-29T01:53:05;3.70;;;3.30;;
5549;SDS011;2798;42.716;23.256;2023-07-29T01:55:31;6.97;;;3.47;;
5549;SDS011;2798;42.716;23.256;2023-07-29T01:57:56;4.53;;;3.40;;
5549;SDS011;2798;42.716;23.256;2023-07-29T02:00:23;4.30;;;3.17;;
5549;SDS011;2798;42.716;23.256;2023-07-29T02:02:48;3.43;;;3.13;;
5549;SDS011;2798;42.716;23.256;2023-07-29T02:05:14;3.37;;;3.07;;
5549;SDS011;2798;42.716;23.256;2023-07-29T02:07:39;8.00;;;3.47;;
5549;SDS011;2798;42.716;23.256;2023-07-29T02:10:05;5.10;;;3.43;;
5549;SDS011;2798;42.716;23.256;2023-07-29T02:12:30;3.40;;;3.10;;
5549;SDS011;2798;42.716;23.256;2023-07-29T02:14:56;4.47;;;3.20;;
5549;SDS011;2798;42.716;23.256;2023-07-29T02:17:21;4.57;;;3.60;;
5549;SDS011;2798;42.716;23.256;2023-07-29T02:19:47;3.30;;;3.00;;
5549;SDS011;2798;42.716;23.256;2023-07-29T02:22:16;7.13;;;3.60;;
5549;SDS011;2798;42.716;23.256;2023-07-29T02:24:42;4.80;;;3.90;;
5549;SDS011;2798;42.716;23.256;2023-07-29T02:27:08;3.60;;;3.30;;
5549;SDS011;2798;42.716;23.256;2023-07-29T02:29:33;4.73;;;3.53;;
5549;SDS011;2798;42.716;23.256;2023-07-29T02:31:59;6.40;;;3.40;;
5549;SDS011;2798;42.716;23.256;2023-07-29T02:34:25;6.50;;;3.60;;
5549;SDS011;2798;42.716;23.256;2023-07-29T02:36:50;4.17;;;3.13;;
5549;SDS011;2798;42.716;23.256;2023-07-29T02:39:16;4.13;;;3.53;;
5549;SDS011;2798;42.716;23.256;2023-07-29T02:41:41;5.70;;;3.70;;
5549;SDS011;2798;42.716;23.256;2023-07-29T02:44:07;6.00;;;3.50;;
5549;SDS011;2798;42.716;23.256;2023-07-29T02:46:32;6.40;;;3.83;;
5549;SDS011;2798;42.716;23.256;2023-07-29T02:48:58;4.10;;;3.27;;
5549;SDS011;2798;42.716;23.256;2023-07-29T02:51:24;3.40;;;3.00;;
5549;SDS011;2798;42.716;23.256;2023-07-29T02:53:49;5.00;;;3.37;;
5549;SDS011;2798;42.716;23.256;2023-07-29T02:56:15;3.83;;;3.40;;
5549;SDS011;2798;42.716;23.256;2023-07-29T02:58:40;3.70;;;3.37;;
5549;SDS011;2798;42.716;23.256;2023-07-29T03:01:06;3.70;;;3.03;;
5549;SDS011;2798;42.716;23.256;2023-07-29T03:03:32;3.37;;;3.07;;
5549;SDS011;2798;42.716;23.256;2023-07-29T03:06:08;4.57;;;3.57;;
5549;SDS011;2798;42.716;23.256;2023-07-29T03:08:36;3.83;;;3.40;;
5549;SDS011;2798;42.716;23.256;2023-07-29T03:11:09;5.73;;;3.30;;
5549;SDS011;2798;42.716;23.256;2023-07-29T03:13:36;5.67;;;3.57;;
5549;SDS011;2798;42.716;23.256;2023-07-29T03:16:19;4.50;;;3.70;;
5549;SDS011;2798;42.716;23.256;2023-07-29T03:18:45;8.27;;;3.70;;
5549;SDS011;2798;42.716;23.256;2023-07-29T03:21:10;5.17;;;3.73;;
5549;SDS011;2798;42.716;23.256;2023-07-29T03:23:37;7.93;;;4.27;;
5549;SDS011;2798;42.716;23.256;2023-07-29T03:26:03;6.67;;;4.10;;
5549;SDS011;2798;42.716;23.256;2023-07-29T03:28:35;7.00;;;3.90;;
5549;SDS011;2798;42.716;23.256;2023-07-29T03:31:01;4.87;;;3.67;;
5549;SDS011;2798;42.716;23.256;2023-07-29T03:33:27;10.33;;;3.90;;
5549;SDS011;2798;42.716;23.256;2023-07-29T03:35:53;4.07;;;3.57;;
5549;SDS011;2798;42.716;23.256;2023-07-29T03:38:18;5.93;;;3.93;;
5549;SDS011;2798;42.716;23.256;2023-07-29T03:40:44;6.37;;;3.87;;
5549;SDS011;2798;42.716;23.256;2023-07-29T03:43:09;5.60;;;3.57;;
5549;SDS011;2798;42.716;23.256;2023-07-29T03:45:35;7.40;;;4.00;;
5549;SDS011;2798;42.716;23.256;2023-07-29T03:48:01;4.50;;;3.70;;
5549;SDS011;2798;42.716;23.256;2023-07-29T03:50:27;3.67;;;3.30;;
5549;SDS011;2798;42.716;23.256;2023-07-29T03:52:54;4.53;;;3.50;;
5549;SDS011;2798;42.716;23.256;2023-07-29T03:55:20;5.50;;;3.53;;
5549;SDS011;2798;42.716;23.256;2023-07-29T03:57:45;6.00;;;3.87;;
5549;SDS011;2798;42.716;23.256;2023-07-29T04:00:11;4.73;;;3.77;;
5549;SDS011;2798;42.716;23.256;2023-07-29T04:02:36;4.30;;;3.30;;
5549;SDS011;2798;42.716;23.256;2023-07-29T04:05:05;4.30;;;3.50;;
5549;SDS011;2798;42.716;23.256;2023-07-29T04:07:33;3.13;;;2.90;;
5549;SDS011;2798;42.716;23.256;2023-07-29T04:09:59;3.83;;;3.33;;
5549;SDS011;2798;42.716;23.256;2023-07-29T04:12:26;4.33;;;3.20;;
5549;SDS011;2798;42.716;23.256;2023-07-29T04:14:51;4.70;;;2.90;;
5549;SDS011;2798;42.716;23.256;2023-07-29T04:17:17;6.40;;;3.37;;
5549;SDS011;2798;42.716;23.256;2023-07-29T04:19:42;4.97;;;2.93;;
5549;SDS011;2798;42.716;23.256;2023-07-29T04:22:07;3.73;;;3.00;;
5549;SDS011;2798;42.716;23.256;2023-07-29T04:24:33;4.47;;;3.37;;
5549;SDS011;2798;42.716;23.256;2023-07-29T04:26:58;4.23;;;2.63;;
5549;SDS011;2798;42.716;23.256;2023-07-29T04:29:24;5.07;;;3.00;;
5549;SDS011;2798;42.716;23.256;2023-07-29T04:31:49;9.90;;;3.27;;
5549;SDS011;2798;42.716;23.256;2023-07-29T04:34:16;6.43;;;2.97;;
5549;SDS011;2798;42.716;23.256;2023-07-29T04:36:45;7.43;;;3.70;;
5549;SDS011;2798;42.716;23.256;2023-07-29T04:39:11;8.60;;;3.60;;
5549;SDS011;2798;42.716;23.256;2023-07-29T04:41:37;7.13;;;3.23;;
5549;SDS011;2798;42.716;23.256;2023-07-29T04:44:02;5.53;;;3.17;;
5549;SDS011;2798;42.716;23.256;2023-07-29T04:46:28;4.97;;;3.77;;
5549;SDS011;2798;42.716;23.256;2023-07-29T04:48:53;10.00;;;4.57;;
5549;SDS011;2798;42.716;23.256;2023-07-29T04:51:19;4.80;;;3.70;;
5549;SDS011;2798;42.716;23.256;2023-07-29T04:53:45;10.73;;;4.27;;
5549;SDS011;2798;42.716;23.256;2023-07-29T04:56:10;7.20;;;3.70;;
5549;SDS011;2798;42.716;23.256;2023-07-29T04:58:36;3.80;;;3.40;;
5549;SDS011;2798;42.716;23.256;2023-07-29T05:01:02;4.23;;;3.63;;
5549;SDS011;2798;42.716;23.256;2023-07-29T05:03:28;8.23;;;4.30;;
5549;SDS011;2798;42.716;23.256;2023-07-29T05:05:53;4.80;;;3.77;;
5549;SDS011;2798;42.716;23.256;2023-07-29T05:08:20;4.50;;;3.60;;
5549;SDS011;2798;42.716;23.256;2023-07-29T05:10:49;6.23;;;4.47;;
5549;SDS011;2798;42.716;23.256;2023-07-29T05:13:15;5.33;;;4.57;;
5549;SDS011;2798;42.716;23.256;2023-07-29T05:15:41;6.63;;;3.93;;
5549;SDS011;2798;42.716;23.256;2023-07-29T05:18:06;6.70;;;4.00;;
5549;SDS011;2798;42.716;23.256;2023-07-29T05:20:32;7.83;;;3.97;;
5549;SDS011;2798;42.716;23.256;2023-07-29T05:22:57;5.10;;;3.27;;
5549;SDS011;2798;42.716;23.256;2023-07-29T05:25:22;6.43;;;4.60;;
5549;SDS011;2798;42.716;23.256;2023-07-29T05:27:48;5.83;;;4.20;;
5549;SDS011;2798;42.716;23.256;2023-07-29T05:30:13;9.17;;;4.53;;
5549;SDS011;2798;42.716;23.256;2023-07-29T05:32:39;6.43;;;4.67;;
5549;SDS011;2798;42.716;23.256;2023-07-29T05:35:04;10.80;;;5.10;;
5549;SDS011;2798;42.716;23.256;2023-07-29T05:37:30;8.50;;;4.47;;
5549;SDS011;2798;42.716;23.256;2023-07-29T05:39:55;7.50;;;4.07;;
5549;SDS011;2798;42.716;23.256;2023-07-29T05:42:21;6.83;;;4.50;;
5549;SDS011;2798;42.716;23.256;2023-07-29T05:44:46;7.40;;;4.70;;
5549;SDS011;2798;42.716;23.256;2023-07-29T05:47:12;7.93;;;4.47;;
5549;SDS011;2798;42.716;23.256;2023-07-29T05:49:37;6.10;;;4.33;;
5549;SDS011;2798;42.716;23.256;2023-07-29T05:52:02;10.67;;;4.70;;
5549;SDS011;2798;42.716;23.256;2023-07-29T05:54:28;8.63;;;4.73;;
5549;SDS011;2798;42.716;23.256;2023-07-29T05:56:53;7.77;;;4.43;;
5549;SDS011;2798;42.716;23.256;2023-07-29T05:59:19;11.43;;;4.03;;
5549;SDS011;2798;42.716;23.256;2023-07-29T06:01:44;12.87;;;5.37;;
5549;SDS011;2798;42.716;23.256;2023-07-29T06:04:09;10.30;;;5.13;;
5549;SDS011;2798;42.716;23.256;2023-07-29T06:06:35;6.13;;;4.50;;
5549;SDS011;2798;42.716;23.256;2023-07-29T06:09:00;9.67;;;4.43;;
5549;SDS011;2798;42.716;23.256;2023-07-29T06:11:26;8.87;;;4.47;;
5549;SDS011;2798;42.716;23.256;2023-07-29T06:13:52;7.47;;;4.90;;
5549;SDS011;2798;42.716;23.256;2023-07-29T06:16:17;9.80;;;6.20;;
5549;SDS011;2798;42.716;23.256;2023-07-29T06:18:46;13.87;;;5.87;;
5549;SDS011;2798;42.716;23.256;2023-07-29T06:21:11;7.63;;;5.17;;
5549;SDS011;2798;42.716;23.256;2023-07-29T06:23:42;6.60;;;4.47;;
5549;SDS011;2798;42.716;23.256;2023-07-29T06:26:08;11.27;;;4.63;;
5549;SDS011;2798;42.716;23.256;2023-07-29T06:28:33;5.33;;;4.80;;
5549;SDS011;2798;42.716;23.256;2023-07-29T06:30:59;10.63;;;5.20;;
5549;SDS011;2798;42.716;23.256;2023-07-29T06:33:24;9.20;;;5.90;;
5549;SDS011;2798;42.716;23.256;2023-07-29T06:35:50;9.70;;;4.83;;
5549;SDS011;2798;42.716;23.256;2023-07-29T06:38:15;10.00;;;5.03;;
5549;SDS011;2798;42.716;23.256;2023-07-29T06:40:44;7.00;;;4.37;;
5549;SDS011;2798;42.716;23.256;2023-07-29T06:43:09;6.87;;;5.00;;
5549;SDS011;2798;42.716;23.256;2023-07-29T06:45:35;8.73;;;5.13;;
5549;SDS011;2798;42.716;23.256;2023-07-29T06:48:00;7.80;;;5.33;;
5549;SDS011;2798;42.716;23.256;2023-07-29T06:50:25;7.17;;;5.57;;
5549;SDS011;2798;42.716;23.256;2023-07-29T06:52:51;9.40;;;5.60;;
5549;SDS011;2798;42.716;23.256;2023-07-29T06:55:16;10.40;;;4.83;;
5549;SDS011;2798;42.716;23.256;2023-07-29T06:57:42;6.07;;;4.77;;
5549;SDS011;2798;42.716;23.256;2023-07-29T07:00:07;11.47;;;4.40;;
5549;SDS011;2798;42.716;23.256;2023-07-29T07:02:34;16.10;;;9.57;;
5549;SDS011;2798;42.716;23.256;2023-07-29T07:04:59;14.43;;;9.97;;
5549;SDS011;2798;42.716;23.256;2023-07-29T07:07:25;9.70;;;5.50;;
5549;SDS011;2798;42.716;23.256;2023-07-29T07:09:50;6.87;;;5.10;;
5549;SDS011;2798;42.716;23.256;2023-07-29T07:12:16;6.03;;;4.90;;
5549;SDS011;2798;42.716;23.256;2023-07-29T07:14:41;5.83;;;4.13;;
5549;SDS011;2798;42.716;23.256;2023-07-29T07:17:06;9.60;;;6.40;;
5549;SDS011;2798;42.716;23.256;2023-07-29T07:19:32;12.57;;;7.77;;
5549;SDS011;2798;42.716;23.256;2023-07-29T07:21:57;12.50;;;6.17;;
5549;SDS011;2798;42.716;23.256;2023-07-29T07:24:23;8.10;;;4.53;;
5549;SDS011;2798;42.716;23.256;2023-07-29T07:26:48;7.43;;;4.47;;
5549;SDS011;2798;42.716;23.256;2023-07-29T07:29:14;7.67;;;4.53;;
5549;SDS011;2798;42.716;23.256;2023-07-29T07:31:39;6.80;;;4.70;;
5549;SDS011;2798;42.716;23.256;2023-07-29T07:34:04;9.33;;;4.83;;
5549;SDS011;2798;42.716;23.256;2023-07-29T07:36:30;7.30;;;3.60;;
5549;SDS011;2798;42.716;23.256;2023-07-29T07:38:56;7.87;;;4.67;;
5549;SDS011;2798;42.716;23.256;2023-07-29T07:41:21;7.70;;;4.03;;
5549;SDS011;2798;42.716;23.256;2023-07-29T07:43:47;5.63;;;3.60;;
5549;SDS011;2798;42.716;23.256;2023-07-29T07:46:12;4.73;;;3.53;;
5549;SDS011;2798;42.716;23.256;2023-07-29T07:48:38;5.37;;;4.30;;
5549;SDS011;2798;42.716;23.256;2023-07-29T07:51:13;6.03;;;3.47;;
5549;SDS011;2798;42.716;23.256;2023-07-29T07:53:38;4.70;;;3.93;;
5549;SDS011;2798;42.716;23.256;2023-07-29T07:56:05;8.80;;;4.00;;
5549;SDS011;2798;42.716;23.256;2023-07-29T07:58:30;6.23;;;3.70;;
5549;SDS011;2798;42.716;23.256;2023-07-29T08:01:02;5.67;;;3.33;;
5549;SDS011;2798;42.716;23.256;2023-07-29T08:03:29;4.63;;;3.27;;
5549;SDS011;2798;42.716;23.256;2023-07-29T08:05:55;5.77;;;3.90;;
5549;SDS011;2798;42.716;23.256;2023-07-29T08:08:20;6.30;;;3.37;;
5549;SDS011;2798;42.716;23.256;2023-07-29T08:10:46;3.50;;;3.20;;
5549;SDS011;2798;42.716;23.256;2023-07-29T08:13:11;6.20;;;3.90;;
5549;SDS011;2798;42.716;23.256;2023-07-29T08:15:36;5.23;;;3.20;;
5549;SDS011;2798;42.716;23.256;2023-07-29T08:18:02;4.10;;;3.50;;
5549;SDS011;2798;42.716;23.256;2023-07-29T08:20:27;7.40;;;5.50;;
5549;SDS011;2798;42.716;23.256;2023-07-29T08:22:53;4.70;;;3.83;;
5549;SDS011;2798;42.716;23.256;2023-07-29T08:25:18;5.00;;;3.43;;
5549;SDS011;2798;42.716;23.256;2023-07-29T08:27:43;3.63;;;3.33;;
5549;SDS011;2798;42.716;23.256;2023-07-29T08:30:09;3.67;;;2.97;;
5549;SDS011;2798;42.716;23.256;2023-07-29T08:32:35;4.20;;;3.33;;
5549;SDS011;2798;42.716;23.256;2023-07-29T08:35:00;5.87;;;2.67;;
5549;SDS011;2798;42.716;23.256;2023-07-29T08:37:26;3.63;;;2.33;;
5549;SDS011;2798;42.716;23.256;2023-07-29T08:39:52;4.50;;;2.70;;
5549;SDS011;2798;42.716;23.256;2023-07-29T08:42:19;4.13;;;3.10;;
5549;SDS011;2798;42.716;23.256;2023-07-29T08:44:45;4.63;;;2.70;;
5549;SDS011;2798;42.716;23.256;2023-07-29T08:47:14;7.20;;;2.90;;
5549;SDS011;2798;42.716;23.256;2023-07-29T08:49:39;7.80;;;6.73;;
5549;SDS011;2798;42.716;23.256;2023-07-29T08:52:06;9.23;;;7.77;;
5549;SDS011;2798;42.716;23.256;2023-07-29T08:54:32;5.00;;;3.73;;
5549;SDS011;2798;42.716;23.256;2023-07-29T08:56:58;2.80;;;2.60;;
5549;SDS011;2798;42.716;23.256;2023-07-29T08:59:24;3.83;;;3.20;;
5549;SDS011;2798;42.716;23.256;2023-07-29T09:01:50;5.27;;;2.93;;
5549;SDS011;2798;42.716;23.256;2023-07-29T09:04:20;3.43;;;2.80;;
5549;SDS011;2798;42.716;23.256;2023-07-29T09:06:47;2.70;;;2.50;;
5549;SDS011;2798;42.716;23.256;2023-07-29T09:09:15;3.97;;;2.60;;
5549;SDS011;2798;42.716;23.256;2023-07-29T09:11:41;3.03;;;1.70;;
5549;SDS011;2798;42.716;23.256;2023-07-29T09:14:06;2.53;;;2.00;;
5549;SDS011;2798;42.716;23.256;2023-07-29T09:16:32;2.80;;;2.30;;
5549;SDS011;2798;42.716;23.256;2023-07-29T09:19:00;4.10;;;2.73;;
5549;SDS011;2798;42.716;23.256;2023-07-29T09:21:28;91.90;;;20.40;;
5549;SDS011;2798;42.716;23.256;2023-07-29T09:23:54;26.87;;;7.67;;
5549;SDS011;2798;42.716;23.256;2023-07-29T09:26:27;3.53;;;2.03;;
5549;SDS011;2798;42.716;23.256;2023-07-29T09:28:57;2.23;;;2.00;;
5549;SDS011;2798;42.716;23.256;2023-07-29T09:31:27;2.67;;;2.43;;
5549;SDS011;2798;42.716;23.256;2023-07-29T09:36:23;6.13;;;2.90;;
5549;SDS011;2798;42.716;23.256;2023-07-29T09:38:52;14.07;;;4.13;;
5549;SDS011;2798;42.716;23.256;2023-07-29T09:41:18;15.57;;;3.57;;
5549;SDS011;2798;42.716;23.256;2023-07-29T09:43:44;8.97;;;3.57;;
5549;SDS011;2798;42.716;23.256;2023-07-29T09:46:09;6.77;;;3.00;;
5549;SDS011;2798;42.716;23.256;2023-07-29T09:48:37;10.60;;;4.40;;
5549;SDS011;2798;42.716;23.256;2023-07-29T09:51:12;3.13;;;1.90;;
5549;SDS011;2798;42.716;23.256;2023-07-29T09:53:46;3.37;;;2.20;;
5549;SDS011;2798;42.716;23.256;2023-07-29T09:56:13;2.80;;;1.97;;
5549;SDS011;2798;42.716;23.256;2023-07-29T09:58:39;2.37;;;2.17;;
5549;SDS011;2798;42.716;23.256;2023-07-29T10:01:05;2.50;;;2.30;;
5549;SDS011;2798;42.716;23.256;2023-07-29T10:03:31;2.00;;;1.90;;
5549;SDS011;2798;42.716;23.256;2023-07-29T10:06:05;2.30;;;1.80;;
5549;SDS011;2798;42.716;23.256;2023-07-29T10:08:31;3.40;;;1.80;;
5549;SDS011;2798;42.716;23.256;2023-07-29T10:11:00;2.50;;;1.80;;
5549;SDS011;2798;42.716;23.256;2023-07-29T10:13:26;1.70;;;1.60;;
5549;SDS011;2798;42.716;23.256;2023-07-29T10:15:55;2.23;;;1.60;;
5549;SDS011;2798;42.716;23.256;2023-07-29T10:18:22;3.10;;;1.60;;
5549;SDS011;2798;42.716;23.256;2023-07-29T10:20:49;2.87;;;1.50;;
5549;SDS011;2798;42.716;23.256;2023-07-29T10:23:16;4.73;;;2.23;;
5549;SDS011;2798;42.716;23.256;2023-07-29T10:25:43;1.87;;;1.77;;
5549;SDS011;2798;42.716;23.256;2023-07-29T10:28:39;2.13;;;1.70;;
5549;SDS011;2798;42.716;23.256;2023-07-29T10:31:06;3.90;;;1.70;;
5549;SDS011;2798;42.716;23.256;2023-07-29T10:33:32;1.80;;;1.60;;
5549;SDS011;2798;42.716;23.256;2023-07-29T10:35:59;1.57;;;1.47;;
5549;SDS011;2798;42.716;23.256;2023-07-29T10:38:26;1.97;;;1.70;;
5549;SDS011;2798;42.716;23.256;2023-07-29T10:40:53;1.80;;;1.70;;
5549;SDS011;2798;42.716;23.256;2023-07-29T10:45:57;1.73;;;1.63;;
5549;SDS011;2798;42.716;23.256;2023-07-29T10:53:52;2.30;;;1.30;;
5549;SDS011;2798;42.716;23.256;2023-07-29T10:56:26;1.20;;;1.10;;
5549;SDS011;2798;42.716;23.256;2023-07-29T11:01:37;1.60;;;1.37;;
5549;SDS011;2798;42.716;23.256;2023-07-29T11:15:03;1.77;;;1.50;;
5549;SDS011;2798;42.716;23.256;2023-07-29T11:17:30;1.50;;;1.40;;
5549;SDS011;2798;42.716;23.256;2023-07-29T11:19:59;1.40;;;1.30;;
5549;SDS011;2798;42.716;23.256;2023-07-29T11:22:27;1.50;;;1.40;;
5549;SDS011;2798;42.716;23.256;2023-07-29T11:24:53;1.83;;;1.33;;
5549;SDS011;2798;42.716;23.256;2023-07-29T11:27:19;1.27;;;1.17;;
5549;SDS011;2798;42.716;23.256;2023-07-29T11:29:44;1.40;;;1.30;;
5549;SDS011;2798;42.716;23.256;2023-07-29T11:32:10;1.70;;;1.60;;
5549;SDS011;2798;42.716;23.256;2023-07-29T11:34:35;1.50;;;1.40;;
5549;SDS011;2798;42.716;23.256;2023-07-29T11:37:01;1.60;;;1.50;;
5549;SDS011;2798;42.716;23.256;2023-07-29T11:39:26;1.50;;;1.40;;
5549;SDS011;2798;42.716;23.256;2023-07-29T11:41:52;1.40;;;1.30;;
5549;SDS011;2798;42.716;23.256;2023-07-29T11:44:17;1.60;;;1.47;;
5549;SDS011;2798;42.716;23.256;2023-07-29T11:46:43;1.40;;;1.30;;
5549;SDS011;2798;42.716;23.256;2023-07-29T11:49:09;1.43;;;1.30;;
5549;SDS011;2798;42.716;23.256;2023-07-29T11:51:35;1.53;;;1.37;;
5549;SDS011;2798;42.716;23.256;2023-07-29T11:54:02;1.70;;;1.60;;
5549;SDS011;2798;42.716;23.256;2023-07-29T11:56:27;1.60;;;1.50;;
5549;SDS011;2798;42.716;23.256;2023-07-29T11:58:55;2.50;;;1.70;;
5549;SDS011;2798;42.716;23.256;2023-07-29T12:01:21;2.53;;;1.30;;
5549;SDS011;2798;42.716;23.256;2023-07-29T12:03:47;2.13;;;1.60;;
5549;SDS011;2798;42.716;23.256;2023-07-29T12:06:15;1.83;;;1.57;;
5549;SDS011;2798;42.716;23.256;2023-07-29T12:08:41;3.53;;;1.60;;
5549;SDS011;2798;42.716;23.256;2023-07-29T12:11:08;1.93;;;1.50;;
5549;SDS011;2798;42.716;23.256;2023-07-29T12:13:36;2.23;;;1.87;;
5549;SDS011;2798;42.716;23.256;2023-07-29T12:16:02;2.40;;;1.83;;
5549;SDS011;2798;42.716;23.256;2023-07-29T12:18:31;3.97;;;1.70;;
5549;SDS011;2798;42.716;23.256;2023-07-29T12:20:57;1.47;;;1.37;;
5549;SDS011;2798;42.716;23.256;2023-07-29T12:23:26;2.07;;;1.43;;
5549;SDS011;2798;42.716;23.256;2023-07-29T12:26:00;1.60;;;1.50;;
5549;SDS011;2798;42.716;23.256;2023-07-29T12:28:26;1.33;;;1.23;;
5549;SDS011;2798;42.716;23.256;2023-07-29T12:30:55;1.70;;;1.47;;
5549;SDS011;2798;42.716;23.256;2023-07-29T12:33:36;2.13;;;1.53;;
5549;SDS011;2798;42.716;23.256;2023-07-29T12:36:07;1.60;;;1.50;;
5549;SDS011;2798;42.716;23.256;2023-07-29T12:38:32;1.70;;;1.40;;
5549;SDS011;2798;42.716;23.256;2023-07-29T12:40:58;1.50;;;1.40;;
5549;SDS011;2798;42.716;23.256;2023-07-29T12:43:24;2.90;;;1.83;;
5549;SDS011;2798;42.716;23.256;2023-07-29T12:45:51;1.90;;;1.67;;
5549;SDS011;2798;42.716;23.256;2023-07-29T12:48:17;1.90;;;1.73;;
5549;SDS011;2798;42.716;23.256;2023-07-29T12:50:42;3.90;;;1.73;;
5549;SDS011;2798;42.716;23.256;2023-07-29T12:53:08;1.60;;;1.50;;
5549;SDS011;2798;42.716;23.256;2023-07-29T12:55:37;2.10;;;1.90;;
5549;SDS011;2798;42.716;23.256;2023-07-29T12:58:03;2.30;;;2.10;;
5549;SDS011;2798;42.716;23.256;2023-07-29T13:00:29;2.87;;;1.60;;
5549;SDS011;2798;42.716;23.256;2023-07-29T13:02:54;1.40;;;1.30;;
5549;SDS011;2798;42.716;23.256;2023-07-29T13:05:20;1.70;;;1.60;;
5549;SDS011;2798;42.716;23.256;2023-07-29T13:07:45;1.60;;;1.50;;
5549;SDS011;2798;42.716;23.256;2023-07-29T13:10:11;2.00;;;1.63;;
5549;SDS011;2798;42.716;23.256;2023-07-29T13:12:38;3.70;;;2.10;;
5549;SDS011;2798;42.716;23.256;2023-07-29T13:15:04;1.87;;;1.40;;
5549;SDS011;2798;42.716;23.256;2023-07-29T13:17:30;1.70;;;1.60;;
5549;SDS011;2798;42.716;23.256;2023-07-29T13:19:56;2.10;;;1.80;;
5549;SDS011;2798;42.716;23.256;2023-07-29T13:22:21;2.10;;;1.90;;
5549;SDS011;2798;42.716;23.256;2023-07-29T13:24:47;4.63;;;1.70;;
5549;SDS011;2798;42.716;23.256;2023-07-29T13:27:12;4.60;;;2.43;;
5549;SDS011;2798;42.716;23.256;2023-07-29T13:29:38;3.93;;;2.87;;
5549;SDS011;2798;42.716;23.256;2023-07-29T13:32:04;13.80;;;7.57;;
5549;SDS011;2798;42.716;23.256;2023-07-29T13:34:30;2.23;;;2.03;;
5549;SDS011;2798;42.716;23.256;2023-07-29T13:36:56;2.73;;;1.80;;
5549;SDS011;2798;42.716;23.256;2023-07-29T13:39:22;2.90;;;1.90;;
5549;SDS011;2798;42.716;23.256;2023-07-29T13:41:47;3.60;;;1.83;;
5549;SDS011;2798;42.716;23.256;2023-07-29T13:44:13;2.70;;;1.93;;
5549;SDS011;2798;42.716;23.256;2023-07-29T13:46:38;3.33;;;2.10;;
5549;SDS011;2798;42.716;23.256;2023-07-29T13:49:03;9.40;;;1.80;;
5549;SDS011;2798;42.716;23.256;2023-07-29T13:51:29;6.50;;;2.30;;
5549;SDS011;2798;42.716;23.256;2023-07-29T13:53:54;2.37;;;1.90;;
5549;SDS011;2798;42.716;23.256;2023-07-29T13:56:21;2.23;;;1.90;;
5549;SDS011;2798;42.716;23.256;2023-07-29T13:58:46;5.57;;;1.50;;
5549;SDS011;2798;42.716;23.256;2023-07-29T14:01:12;4.13;;;1.90;;
5549;SDS011;2798;42.716;23.256;2023-07-29T14:03:37;4.70;;;2.10;;
5549;SDS011;2798;42.716;23.256;2023-07-29T14:06:03;3.20;;;2.00;;
5549;SDS011;2798;42.716;23.256;2023-07-29T14:08:28;5.23;;;2.33;;
5549;SDS011;2798;42.716;23.256;2023-07-29T14:10:54;4.90;;;3.33;;
5549;SDS011;2798;42.716;23.256;2023-07-29T14:13:19;1.80;;;1.70;;
5549;SDS011;2798;42.716;23.256;2023-07-29T14:15:45;2.97;;;2.10;;
5549;SDS011;2798;42.716;23.256;2023-07-29T14:18:10;3.47;;;2.30;;
5549;SDS011;2798;42.716;23.256;2023-07-29T14:20:35;2.30;;;1.83;;
5549;SDS011;2798;42.716;23.256;2023-07-29T14:23:01;2.40;;;1.90;;
5549;SDS011;2798;42.716;23.256;2023-07-29T14:25:26;3.60;;;2.00;;
5549;SDS011;2798;42.716;23.256;2023-07-29T14:27:52;3.00;;;1.97;;
5549;SDS011;2798;42.716;23.256;2023-07-29T14:30:17;10.57;;;1.93;;
5549;SDS011;2798;42.716;23.256;2023-07-29T14:32:43;4.23;;;2.10;;
5549;SDS011;2798;42.716;23.256;2023-07-29T14:35:08;11.00;;;2.27;;
5549;SDS011;2798;42.716;23.256;2023-07-29T14:37:34;2.33;;;2.13;;
5549;SDS011;2798;42.716;23.256;2023-07-29T14:40:00;3.53;;;2.23;;
5549;SDS011;2798;42.716;23.256;2023-07-29T14:42:26;5.83;;;2.00;;
5549;SDS011;2798;42.716;23.256;2023-07-29T14:44:52;2.03;;;1.93;;
5549;SDS011;2798;42.716;23.256;2023-07-29T14:47:18;2.03;;;1.93;;
5549;SDS011;2798;42.716;23.256;2023-07-29T14:49:44;2.27;;;2.00;;
5549;SDS011;2798;42.716;23.256;2023-07-29T14:52:10;2.80;;;2.20;;
5549;SDS011;2798;42.716;23.256;2023-07-29T14:54:35;4.37;;;2.00;;
5549;SDS011;2798;42.716;23.256;2023-07-29T14:57:01;1.90;;;1.80;;
5549;SDS011;2798;42.716;23.256;2023-07-29T14:59:26;3.37;;;2.30;;
5549;SDS011;2798;42.716;23.256;2023-07-29T15:01:52;2.80;;;2.10;;
5549;SDS011;2798;42.716;23.256;2023-07-29T15:04:18;2.40;;;2.07;;
5549;SDS011;2798;42.716;23.256;2023-07-29T15:06:43;1.83;;;1.70;;
5549;SDS011;2798;42.716;23.256;2023-07-29T15:09:09;2.10;;;1.90;;
5549;SDS011;2798;42.716;23.256;2023-07-29T15:11:34;4.33;;;2.00;;
5549;SDS011;2798;42.716;23.256;2023-07-29T15:14:01;2.40;;;1.73;;
5549;SDS011;2798;42.716;23.256;2023-07-29T15:16:28;3.27;;;1.93;;
5549;SDS011;2798;42.716;23.256;2023-07-29T15:18:54;2.80;;;2.03;;
5549;SDS011;2798;42.716;23.256;2023-07-29T15:21:20;2.30;;;2.10;;
5549;SDS011;2798;42.716;23.256;2023-07-29T15:23:45;2.20;;;2.00;;
5549;SDS011;2798;42.716;23.256;2023-07-29T15:26:11;2.97;;;1.80;;
5549;SDS011;2798;42.716;23.256;2023-07-29T15:28:37;1.90;;;1.80;;
5549;SDS011;2798;42.716;23.256;2023-07-29T15:31:02;2.53;;;2.03;;